createdAt,value
2022-08-19T00:00:52.871Z,20.40
2022-08-19T00:03:19.575Z,20.70
2022-08-19T00:05:46.517Z,21.00
2022-08-19T00:08:13.151Z,20.60
2022-08-19T00:10:39.832Z,20.80
2022-08-19T00:13:06.526Z,20.50
2022-08-19T00:15:33.206Z,20.90
2022-08-19T00:17:59.868Z,20.70
2022-08-19T00:20:26.918Z,20.60
2022-08-19T00:22:53.798Z,19.70
2022-08-19T00:25:30.197Z,20.70
2022-08-19T00:27:57.214Z,21.00
2022-08-19T00:30:24.749Z,20.60
2022-08-19T00:32:51.695Z,20.60
2022-08-19T00:35:19.346Z,20.30
2022-08-19T00:40:13.482Z,19.50
2022-08-19T00:47:34.521Z,19.40
2022-08-19T01:35:10.755Z,19.40
2022-08-19T01:37:52.877Z,19.50
2022-08-19T01:40:21.286Z,19.40
2022-08-19T01:42:48.825Z,20.70
2022-08-19T01:45:15.558Z,20.50
2022-08-19T01:47:42.252Z,20.30
2022-08-19T01:50:11.021Z,21.00
2022-08-19T01:55:06.023Z,19.60
2022-08-19T02:00:00.594Z,19.40
2022-08-19T02:04:54.665Z,19.60
2022-08-19T02:07:22.624Z,19.30
2022-08-19T02:09:49.322Z,19.00
2022-08-19T02:12:17.284Z,20.40
2022-08-19T02:14:43.964Z,19.90
2022-08-19T02:17:10.624Z,21.40
2022-08-19T02:22:05.783Z,19.70
2022-08-19T02:24:32.425Z,20.50
2022-08-19T02:29:26.495Z,19.60
2022-08-19T02:31:53.133Z,19.20
2022-08-19T02:34:19.809Z,20.50
2022-08-19T04:23:10.163Z,19.30
2022-08-19T04:25:38.346Z,20.50
2022-08-19T04:28:05.045Z,19.10
2022-08-19T04:30:31.692Z,19.20
2022-08-19T04:32:58.377Z,19.30
2022-08-19T04:35:25.140Z,19.40
2022-08-19T04:37:51.841Z,19.50
2022-08-19T04:40:37.221Z,19.90
2022-08-19T04:43:03.843Z,19.20
2022-08-19T04:45:32.709Z,19.10
2022-08-19T04:48:26.163Z,19.10
2022-08-19T04:51:00.391Z,19.20
2022-08-19T04:53:29.579Z,19.10
2022-08-19T04:55:57.359Z,19.10
2022-08-19T04:58:25.994Z,19.30
2022-08-19T05:00:53.116Z,19.40
2022-08-19T05:03:20.350Z,19.30
2022-08-19T05:05:49.409Z,19.20
2022-08-19T05:08:30.590Z,19.10
2022-08-19T05:10:58.481Z,19.20
2022-08-19T05:13:25.370Z,19.00
2022-08-19T05:15:58.636Z,19.00
2022-08-19T05:18:45.523Z,19.10
2022-08-19T08:48:02.065Z,22.30
2022-08-19T08:52:58.133Z,22.70
2022-08-19T08:55:27.451Z,22.90
2022-08-19T09:00:32.711Z,23.10
2022-08-19T09:03:01.145Z,22.70
2022-08-19T09:05:41.441Z,24.60
2022-08-19T09:08:17.966Z,24.60
2022-08-19T09:10:55.240Z,22.90
2022-08-19T09:13:23.188Z,23.10
2022-08-19T09:16:02.511Z,22.80
2022-08-19T09:18:48.261Z,23.50
2022-08-19T09:21:15.247Z,23.00
2022-08-19T09:23:42.130Z,23.60
2022-08-19T09:26:10.730Z,23.30
2022-08-19T09:33:32.820Z,24.00
2022-08-19T09:36:04.472Z,25.10
2022-08-19T09:38:36.139Z,23.80
2022-08-19T09:41:14.634Z,24.20
2022-08-19T09:43:44.596Z,24.70
2022-08-19T09:46:18.103Z,25.50
2022-08-19T09:48:49.315Z,23.10
2022-08-19T09:51:17.277Z,23.00
2022-08-19T09:53:44.957Z,22.80
2022-08-19T09:56:12.385Z,24.30
2022-08-19T09:58:39.712Z,22.30
2022-08-19T10:01:07.443Z,22.10
2022-08-19T10:03:36.224Z,23.30
2022-08-19T10:06:04.341Z,22.30
2022-08-19T10:08:32.751Z,23.80
2022-08-19T10:11:28.397Z,22.90
2022-08-19T10:13:49.778Z,23.50
2022-08-19T10:16:19.378Z,23.30
2022-08-19T10:18:49.518Z,23.40
2022-08-19T10:21:16.486Z,22.50
2022-08-19T10:23:46.131Z,23.40
2022-08-19T10:26:17.470Z,21.80
2022-08-19T10:28:47.210Z,22.50
2022-08-19T10:31:19.395Z,22.70
2022-08-19T10:33:53.608Z,23.10
2022-08-19T10:36:23.880Z,23.50
2022-08-19T10:38:56.198Z,25.00
2022-08-19T10:53:59.744Z,24.20
2022-08-19T10:56:45.213Z,24.20
2022-08-19T11:01:41.145Z,23.50
2022-08-19T11:04:11.007Z,23.10
2022-08-19T11:06:39.486Z,23.20
2022-08-19T11:09:06.929Z,23.40
2022-08-19T11:11:33.681Z,23.80
2022-08-19T11:14:05.212Z,24.80
2022-08-19T11:16:32.753Z,23.90
2022-08-19T11:19:00.256Z,24.60
2022-08-19T11:21:28.802Z,24.20
2022-08-19T11:23:56.826Z,23.10
2022-08-19T11:26:24.141Z,24.30
2022-08-19T11:28:55.433Z,23.00
2022-08-19T11:31:23.942Z,22.90
2022-08-19T11:33:57.376Z,22.20
2022-08-19T11:36:24.068Z,23.60
2022-08-19T11:38:51.920Z,24.00
2022-08-19T11:41:19.679Z,22.30
2022-08-19T11:46:15.495Z,22.10
2022-08-19T11:48:42.490Z,23.10
2022-08-19T11:51:20.736Z,23.50
2022-08-19T11:53:47.318Z,22.20
2022-08-19T11:56:14.031Z,24.10
2022-08-19T11:58:43.358Z,24.10
2022-08-19T12:01:12.256Z,23.20
2022-08-19T12:03:39.505Z,24.00
2022-08-19T12:06:07.052Z,23.90
2022-08-19T12:08:33.774Z,22.70
2022-08-19T12:11:02.312Z,24.40
2022-08-19T12:13:29.584Z,22.80
2022-08-19T12:15:56.455Z,24.20
2022-08-19T12:18:23.571Z,23.80
2022-08-19T12:20:51.986Z,24.40
2022-08-19T12:23:18.718Z,24.80
2022-08-19T12:25:52.762Z,24.50
2022-08-19T12:28:20.960Z,23.20
2022-08-19T12:30:47.986Z,24.70
2022-08-19T12:33:15.059Z,23.80
2022-08-19T12:35:45.655Z,23.90
2022-08-19T12:38:12.495Z,23.70
2022-08-19T12:40:40.992Z,24.10
2022-08-19T12:43:08.442Z,23.70
2022-08-19T12:45:35.283Z,23.30
2022-08-19T12:48:03.829Z,24.40
2022-08-19T12:50:50.449Z,23.30
2022-08-19T12:53:17.111Z,24.60
2022-08-19T12:55:44.214Z,24.40
2022-08-19T12:58:11.236Z,24.50
2022-08-19T13:00:37.912Z,23.30
2022-08-19T13:03:04.622Z,23.70
2022-08-19T13:05:32.791Z,24.20
2022-08-19T13:08:00.698Z,23.50
2022-08-19T13:10:29.129Z,23.90
2022-08-19T13:12:56.046Z,22.80
2022-08-19T13:15:24.371Z,24.40
2022-08-19T13:17:53.446Z,24.10
2022-08-19T13:20:20.982Z,23.30
2022-08-19T13:22:48.856Z,23.10
2022-08-19T13:25:18.507Z,24.20
2022-08-19T13:27:45.463Z,24.40
2022-08-19T13:30:33.113Z,24.00
2022-08-19T13:33:11.980Z,22.70
2022-08-19T13:35:44.062Z,22.50
2022-08-19T13:38:11.918Z,22.40
2022-08-19T13:40:40.130Z,22.00
2022-08-19T13:43:17.756Z,22.00
2022-08-19T13:45:57.123Z,22.80
2022-08-19T13:48:25.236Z,21.90
2022-08-19T13:50:51.892Z,21.70
2022-08-19T13:53:18.648Z,22.60
2022-08-19T13:55:45.333Z,21.10
2022-08-19T13:58:12.528Z,22.20
2022-08-19T14:00:40.976Z,22.50
2022-08-19T14:03:09.413Z,21.00
2022-08-19T14:05:36.524Z,22.20
2022-08-19T14:08:03.636Z,21.20
2022-08-19T14:12:59.903Z,21.10
2022-08-19T14:15:27.072Z,22.90
2022-08-19T14:17:53.941Z,22.50
2022-08-19T14:20:21.100Z,22.50
2022-08-19T14:22:53.756Z,22.70
2022-08-19T14:25:22.533Z,22.50
2022-08-19T14:27:49.732Z,20.90
2022-08-19T14:30:18.484Z,21.70
2022-08-19T14:32:45.169Z,22.50
2022-08-19T14:35:13.538Z,22.60
2022-08-19T14:37:45.794Z,21.00
2022-08-19T14:40:14.439Z,21.70
2022-08-19T14:42:41.975Z,21.20
2022-08-19T14:45:08.978Z,22.50
2022-08-19T14:47:35.640Z,21.10
2022-08-19T14:50:05.140Z,22.60
2022-08-19T14:52:32.055Z,21.40
2022-08-19T14:54:58.691Z,20.80
2022-08-19T14:57:25.359Z,21.60
2022-08-19T14:59:52.004Z,22.50
2022-08-19T15:02:33.798Z,22.00
2022-08-19T15:05:01.967Z,20.90
2022-08-19T15:07:29.678Z,21.90
2022-08-19T15:09:56.537Z,22.60
2022-08-19T15:12:23.587Z,20.70
2022-08-19T15:14:55.957Z,22.40
2022-08-19T15:17:45.231Z,22.60
2022-08-19T15:20:11.108Z,22.20
2022-08-19T15:22:37.890Z,21.30
2022-08-19T15:25:06.215Z,22.40
2022-08-19T15:27:32.973Z,21.10
2022-08-19T15:30:01.197Z,22.00
2022-08-19T15:32:29.092Z,21.00
2022-08-19T15:34:55.777Z,22.00
2022-08-19T15:37:24.099Z,21.70
2022-08-19T15:39:51.523Z,20.80
2022-08-19T15:42:29.908Z,22.10
2022-08-19T15:44:58.262Z,21.90
2022-08-19T15:49:58.906Z,20.40
2022-08-19T15:52:27.373Z,20.50
2022-08-19T15:54:53.978Z,21.60
2022-08-19T15:57:23.579Z,21.40
2022-08-19T16:00:09.132Z,21.70
2022-08-19T16:02:56.881Z,21.20
2022-08-19T16:05:45.303Z,20.40
2022-08-19T16:08:12.000Z,22.10
2022-08-19T16:10:39.657Z,21.60
2022-08-19T16:13:06.578Z,20.40
2022-08-19T16:15:33.846Z,20.70
2022-08-19T16:18:02.874Z,21.50
2022-08-19T16:20:29.985Z,21.80
2022-08-19T16:22:58.439Z,22.20
2022-08-19T16:25:27.682Z,21.70
2022-08-19T16:28:06.497Z,21.90
2022-08-19T16:30:36.061Z,20.80
2022-08-19T16:33:02.721Z,20.20
2022-08-19T16:35:29.438Z,20.30
2022-08-19T16:37:56.152Z,20.20
2022-08-19T16:40:23.039Z,20.20
2022-08-19T16:42:49.715Z,20.10
2022-08-19T16:45:20.713Z,19.60
2022-08-19T16:47:47.393Z,19.50
2022-08-19T16:50:14.011Z,19.90
2022-08-19T16:52:40.616Z,19.60
2022-08-19T16:57:35.100Z,19.90
2022-08-19T17:00:08.724Z,20.60
2022-08-19T17:02:35.734Z,20.00
2022-08-19T17:05:03.119Z,19.30
2022-08-19T17:07:33.059Z,20.00
2022-08-19T17:10:00.772Z,19.40
2022-08-19T17:12:30.362Z,19.80
2022-08-19T17:15:00.941Z,19.60
2022-08-19T17:17:29.279Z,20.70
2022-08-19T17:19:56.516Z,20.40
2022-08-19T17:22:23.679Z,20.80
2022-08-19T17:24:50.351Z,21.20
2022-08-19T17:27:16.980Z,21.20
2022-08-19T17:29:46.936Z,20.90
2022-08-19T17:32:14.121Z,20.30
2022-08-19T17:34:40.755Z,21.80
2022-08-19T17:37:07.436Z,21.60
2022-08-19T17:39:39.019Z,19.50
2022-08-19T17:42:08.252Z,20.30
2022-08-19T17:44:36.587Z,19.90
2022-08-19T17:47:04.288Z,19.60
2022-08-19T17:49:32.610Z,20.50
2022-08-19T17:52:00.351Z,20.90
2022-08-19T17:57:00.156Z,19.60
2022-08-19T17:59:30.126Z,19.90
2022-08-19T18:01:57.357Z,20.10
2022-08-19T18:05:12.855Z,20.90
2022-08-19T18:07:40.423Z,19.40
2022-08-19T18:12:38.403Z,19.30
2022-08-19T18:15:06.487Z,20.70
2022-08-19T18:17:33.381Z,19.50
2022-08-19T18:20:00.203Z,19.80
2022-08-19T18:22:40.567Z,20.20
2022-08-19T18:25:12.643Z,19.20
2022-08-19T18:30:08.275Z,19.10
2022-08-19T18:35:03.783Z,19.00
2022-08-19T18:43:16.141Z,19.10
2022-08-19T18:46:02.296Z,19.20
2022-08-19T18:48:47.465Z,18.90
2022-08-19T18:51:14.564Z,20.10
2022-08-19T18:53:41.830Z,19.40
2022-08-19T18:56:10.267Z,20.20
2022-08-19T18:58:37.808Z,20.40
2022-08-19T19:01:16.683Z,19.10
2022-08-19T19:03:45.754Z,19.40
2022-08-19T19:06:21.755Z,19.20
2022-08-19T19:08:50.203Z,18.90
2022-08-19T19:11:19.837Z,19.60
2022-08-19T19:13:47.066Z,18.70
2022-08-19T19:16:13.751Z,18.70
2022-08-19T19:18:40.485Z,19.00
2022-08-19T19:21:08.744Z,18.60
2022-08-19T19:23:40.558Z,19.00
2022-08-19T19:26:10.416Z,19.70
2022-08-19T19:28:43.333Z,19.60
2022-08-19T19:31:14.901Z,20.00
2022-08-19T19:33:42.406Z,18.70
2022-08-19T19:36:09.269Z,19.10
2022-08-19T19:38:36.053Z,18.80
2022-08-19T19:41:02.731Z,18.60
2022-08-19T19:43:30.576Z,17.80
2022-08-19T19:46:07.438Z,18.20
2022-08-19T19:48:35.484Z,19.00
2022-08-19T19:51:02.926Z,19.60
2022-08-19T19:53:29.786Z,18.60
2022-08-19T19:55:58.810Z,18.50
2022-08-19T19:58:28.669Z,18.30
2022-08-19T20:00:56.495Z,18.60
2022-08-19T20:03:23.352Z,18.50
2022-08-19T20:05:50.123Z,18.50
2022-08-19T20:08:36.188Z,18.50
2022-08-19T20:11:04.510Z,18.40
2022-08-19T20:13:31.807Z,18.50
2022-08-19T20:15:58.697Z,19.20
2022-08-19T20:18:25.927Z,18.50
2022-08-19T20:20:52.569Z,18.50
2022-08-19T20:23:20.282Z,18.70
2022-08-19T20:25:47.625Z,19.00
2022-08-19T20:28:15.058Z,18.90
2022-08-19T20:30:46.298Z,18.80
2022-08-19T20:33:13.799Z,18.90
2022-08-19T20:35:40.451Z,18.30
2022-08-19T20:38:08.791Z,19.00
2022-08-19T20:40:36.013Z,18.60
2022-08-19T20:43:07.662Z,18.30
2022-08-19T20:45:36.263Z,18.30
2022-08-19T20:48:04.298Z,18.00
2022-08-19T20:50:35.218Z,18.30
2022-08-19T20:53:08.341Z,18.30
2022-08-19T20:55:35.103Z,18.20
2022-08-19T20:58:01.953Z,18.20
2022-08-19T21:00:30.494Z,18.40
2022-08-19T21:02:57.285Z,19.00
2022-08-19T21:05:28.450Z,18.70
2022-08-19T21:07:57.710Z,18.30
2022-08-19T21:10:26.131Z,18.20
2022-08-19T21:12:53.599Z,18.30
2022-08-19T21:15:20.241Z,17.10
2022-08-19T21:17:48.592Z,19.20
2022-08-19T21:20:16.517Z,18.20
2022-08-19T21:22:43.167Z,17.10
2022-08-19T21:25:10.441Z,19.00
2022-08-19T21:27:37.240Z,18.30
2022-08-19T21:30:04.813Z,17.90
2022-08-19T21:32:31.449Z,18.30
2022-08-19T21:34:58.125Z,18.10
2022-08-19T21:37:25.597Z,18.20
2022-08-19T21:39:53.490Z,18.00
2022-08-19T21:42:20.355Z,17.60
2022-08-19T21:44:47.097Z,19.00
2022-08-19T21:47:13.734Z,18.30
2022-08-19T21:49:40.458Z,18.90
2022-08-19T21:52:07.293Z,18.50
2022-08-19T21:54:38.555Z,18.30
2022-08-19T21:57:10.247Z,18.10
2022-08-19T21:59:41.203Z,18.20
2022-08-19T22:02:20.407Z,17.70
2022-08-19T22:04:47.710Z,18.10
2022-08-19T22:07:14.426Z,19.10
2022-08-19T22:09:42.144Z,17.70
2022-08-19T22:12:10.336Z,18.10
2022-08-19T22:14:37.826Z,18.20
2022-08-19T22:17:05.704Z,18.10
2022-08-19T22:19:32.440Z,18.20
2022-08-19T22:21:59.335Z,17.90
2022-08-19T22:24:26.041Z,18.20
2022-08-19T22:26:52.683Z,17.40
2022-08-19T22:29:19.581Z,17.90
2022-08-19T22:31:54.470Z,17.40
2022-08-19T22:34:23.222Z,18.90
2022-08-19T22:36:49.859Z,19.30
2022-08-19T22:39:16.555Z,18.10
2022-08-19T22:41:43.244Z,19.00
2022-08-19T22:44:11.408Z,18.40
2022-08-19T22:46:38.265Z,17.80
2022-08-19T22:49:04.963Z,18.00
2022-08-19T22:51:50.491Z,18.00
2022-08-19T22:54:18.030Z,18.60
2022-08-19T22:56:44.830Z,18.60
2022-08-19T22:59:11.563Z,17.10
2022-08-19T23:01:39.443Z,17.80
2022-08-19T23:04:06.081Z,18.90
2022-08-19T23:06:33.845Z,17.80
2022-08-19T23:09:01.781Z,17.10
2022-08-19T23:11:31.246Z,18.90
2022-08-19T23:13:57.908Z,18.70
2022-08-19T23:16:24.747Z,19.30
2022-08-19T23:18:56.148Z,19.90
2022-08-19T23:21:26.595Z,17.40
2022-08-19T23:23:53.674Z,18.00
2022-08-19T23:26:20.699Z,19.30
2022-08-19T23:29:06.116Z,17.50
2022-08-19T23:31:32.788Z,17.60
2022-08-19T23:34:00.070Z,17.60
2022-08-19T23:36:36.264Z,19.20
2022-08-19T23:41:47.307Z,18.00
2022-08-19T23:44:14.656Z,17.90
2022-08-19T23:46:50.543Z,17.50
2022-08-19T23:49:22.337Z,17.20
2022-08-19T23:51:49.006Z,19.40
2022-08-19T23:54:15.626Z,21.20
2022-08-19T23:56:42.241Z,17.80
2022-08-19T23:59:08.897Z,17.80
